createdAt,value
2023-05-05T00:00:39.144Z,85.63
2023-05-05T00:01:40.823Z,85.44
2023-05-05T00:02:42.650Z,85.27
2023-05-05T00:03:44.663Z,85.30
2023-05-05T00:04:46.482Z,85.04
2023-05-05T00:05:51.246Z,85.26
2023-05-05T00:06:53.057Z,84.99
2023-05-05T00:07:54.788Z,85.16
2023-05-05T00:08:56.469Z,85.24
2023-05-05T00:09:58.166Z,85.54
2023-05-05T00:10:59.874Z,85.62
2023-05-05T00:12:01.664Z,85.73
2023-05-05T00:13:03.467Z,85.61
2023-05-05T00:14:05.532Z,86.09
2023-05-05T00:15:07.864Z,86.31
2023-05-05T00:16:09.796Z,86.22
2023-05-05T00:17:11.718Z,86.42
2023-05-05T00:18:15.847Z,86.27
2023-05-05T00:19:17.550Z,86.11
2023-05-05T00:20:19.356Z,86.09
2023-05-05T00:21:21.042Z,86.04
2023-05-05T00:22:22.687Z,86.36
2023-05-05T00:23:24.385Z,85.99
2023-05-05T00:24:26.199Z,86.01
2023-05-05T00:25:28.059Z,86.10
2023-05-05T00:26:29.849Z,85.97
2023-05-05T00:27:31.585Z,85.77
2023-05-05T00:28:33.578Z,85.64
2023-05-05T00:29:35.285Z,85.74
2023-05-05T00:30:37.585Z,86.18
2023-05-05T00:31:39.356Z,86.05
2023-05-05T00:32:41.279Z,85.75
2023-05-05T00:33:43.166Z,85.65
2023-05-05T00:34:44.920Z,85.63
2023-05-05T00:35:46.638Z,85.75
2023-05-05T00:36:48.425Z,85.19
2023-05-05T00:37:50.179Z,84.99
2023-05-05T00:38:52.064Z,85.15
2023-05-05T00:39:53.866Z,85.21
2023-05-05T00:40:55.601Z,85.05
2023-05-05T00:41:57.302Z,85.17
2023-05-05T00:42:58.983Z,85.26
2023-05-05T00:44:00.804Z,85.18
2023-05-05T00:45:02.576Z,85.14
2023-05-05T00:46:15.224Z,84.81
2023-05-05T00:47:17.341Z,84.91
2023-05-05T00:48:19.169Z,85.33
2023-05-05T00:49:21.169Z,85.22
2023-05-05T00:50:28.264Z,85.01
2023-05-05T00:51:30.813Z,85.35
2023-05-05T00:52:32.863Z,85.55
2023-05-05T00:53:35.045Z,85.52
2023-05-05T00:54:37.750Z,85.29
2023-05-05T00:55:39.633Z,85.34
2023-05-05T00:56:41.434Z,85.57
2023-05-05T00:57:44.126Z,85.98
2023-05-05T00:58:45.954Z,86.11
2023-05-05T00:59:50.415Z,86.12
2023-05-05T01:01:26.309Z,86.34
2023-05-05T01:02:28.188Z,86.36
2023-05-05T01:03:30.109Z,86.10
2023-05-05T01:04:31.994Z,85.79
2023-05-05T01:06:05.152Z,85.84
2023-05-05T01:07:17.976Z,86.11
2023-05-05T01:08:57.450Z,86.39
2023-05-05T01:10:19.806Z,86.57
2023-05-05T01:11:31.138Z,86.42
2023-05-05T01:12:48.856Z,86.70
2023-05-05T01:14:03.569Z,86.77
2023-05-05T01:15:30.715Z,86.81
2023-05-05T01:16:36.041Z,87.25
2023-05-05T01:17:44.643Z,87.34
2023-05-05T01:18:55.284Z,86.96
2023-05-05T01:20:11.457Z,87.29
2023-05-05T01:21:21.948Z,87.04
2023-05-05T01:22:27.614Z,86.99
2023-05-05T01:23:40.304Z,86.90
2023-05-05T01:25:06.927Z,86.81
2023-05-05T01:26:19.311Z,87.29
2023-05-05T01:27:29.955Z,87.14
2023-05-05T01:28:48.598Z,87.09
2023-05-05T01:30:26.486Z,87.14
2023-05-05T01:31:44.762Z,86.69
2023-05-05T01:32:53.379Z,87.25
2023-05-05T01:34:06.172Z,88.22
2023-05-05T01:35:20.938Z,87.83
2023-05-05T01:36:32.812Z,87.74
2023-05-05T01:37:46.286Z,87.50
2023-05-05T01:38:53.897Z,87.61
2023-05-05T01:39:59.422Z,87.25
2023-05-05T01:41:15.358Z,87.41
2023-05-05T01:42:18.585Z,87.40
2023-05-05T01:43:23.414Z,87.27
2023-05-05T01:44:25.466Z,87.22
2023-05-05T01:45:32.298Z,87.29
2023-05-05T01:46:36.822Z,86.99
2023-05-05T01:47:40.424Z,86.99
2023-05-05T01:48:43.985Z,86.91
2023-05-05T01:49:47.855Z,86.85
2023-05-05T01:50:51.852Z,87.30
2023-05-05T01:51:55.817Z,87.51
2023-05-05T01:52:58.351Z,87.31
2023-05-05T01:54:02.663Z,86.96
2023-05-05T01:55:06.530Z,87.17
2023-05-05T01:56:10.447Z,87.42
2023-05-05T01:57:14.614Z,87.23
2023-05-05T01:58:17.427Z,87.22
2023-05-05T01:59:21.263Z,87.25
2023-05-05T02:00:23.526Z,87.80
2023-05-05T02:01:26.630Z,87.70
2023-05-05T02:02:30.292Z,87.72
2023-05-05T02:03:33.979Z,87.77
2023-05-05T02:04:41.048Z,88.33
2023-05-05T02:05:44.661Z,88.38
2023-05-05T02:06:47.834Z,88.35
2023-05-05T02:07:51.676Z,88.71
2023-05-05T02:08:54.671Z,88.88
2023-05-05T02:09:56.941Z,89.02
2023-05-05T02:10:59.651Z,89.36
2023-05-05T02:12:02.105Z,89.02
2023-05-05T02:13:04.702Z,89.04
2023-05-05T02:14:09.416Z,89.11
2023-05-05T02:15:14.432Z,88.92
2023-05-05T02:16:17.999Z,89.11
2023-05-05T02:17:21.836Z,89.24
2023-05-05T02:18:25.084Z,89.38
2023-05-05T02:19:38.909Z,89.42
2023-05-05T02:20:41.259Z,89.41
2023-05-05T02:21:42.933Z,89.10
2023-05-05T02:22:44.886Z,88.59
2023-05-05T02:23:47.116Z,89.02
2023-05-05T02:24:49.127Z,88.98
2023-05-05T02:25:56.056Z,88.88
2023-05-05T02:26:59.845Z,88.78
2023-05-05T02:28:03.347Z,88.66
2023-05-05T02:29:22.593Z,88.43
2023-05-05T02:30:25.857Z,88.50
2023-05-05T02:31:29.746Z,88.38
2023-05-05T02:32:39.934Z,88.22
2023-05-05T02:33:43.576Z,88.06
2023-05-05T02:34:48.188Z,88.07
2023-05-05T02:35:52.192Z,88.28
2023-05-05T02:36:58.383Z,88.24
2023-05-05T02:38:03.717Z,88.43
2023-05-05T02:39:12.526Z,88.48
2023-05-05T02:40:17.825Z,88.85
2023-05-05T02:41:21.197Z,88.79
2023-05-05T02:42:23.884Z,88.80
2023-05-05T02:43:29.853Z,88.76
2023-05-05T02:44:33.754Z,88.65
2023-05-05T02:45:35.878Z,88.46
2023-05-05T02:46:38.231Z,88.44
2023-05-05T02:47:40.003Z,88.29
2023-05-05T02:48:42.020Z,88.20
2023-05-05T02:49:43.684Z,88.08
2023-05-05T02:50:45.440Z,87.70
2023-05-05T02:51:47.167Z,87.91
2023-05-05T02:52:49.161Z,87.43
2023-05-05T02:53:51.615Z,87.37
2023-05-05T02:54:53.745Z,87.33
2023-05-05T02:56:06.147Z,87.24
2023-05-05T02:57:11.614Z,87.48
2023-05-05T02:58:34.865Z,87.76
2023-05-05T02:59:48.689Z,88.22
2023-05-05T03:00:53.177Z,88.66
2023-05-05T03:02:21.011Z,89.01
2023-05-05T03:03:30.846Z,89.10
2023-05-05T03:04:40.049Z,89.25
2023-05-05T03:06:05.362Z,89.33
2023-05-05T03:07:12.353Z,88.91
2023-05-05T03:08:18.318Z,88.69
2023-05-05T03:09:43.767Z,88.89
2023-05-05T03:10:59.139Z,89.00
2023-05-05T03:12:04.098Z,89.12
2023-05-05T03:13:09.358Z,89.12
2023-05-05T03:14:14.162Z,88.78
2023-05-05T03:15:16.214Z,88.39
2023-05-05T03:16:20.052Z,88.60
2023-05-05T03:17:24.601Z,89.06
2023-05-05T03:18:29.807Z,89.07
2023-05-05T03:19:32.365Z,89.11
2023-05-05T03:20:35.064Z,89.42
2023-05-05T03:21:37.411Z,89.09
2023-05-05T03:22:39.101Z,89.23
2023-05-05T03:23:40.881Z,89.12
2023-05-05T03:24:42.593Z,89.74
2023-05-05T03:25:49.089Z,89.39
2023-05-05T03:26:51.011Z,89.23
2023-05-05T03:27:52.769Z,89.33
2023-05-05T03:28:54.797Z,89.31
2023-05-05T03:29:56.786Z,89.41
2023-05-05T03:30:58.763Z,90.11
2023-05-05T03:32:00.548Z,90.38
2023-05-05T03:33:02.323Z,90.42
2023-05-05T03:34:04.416Z,90.05
2023-05-05T03:35:06.470Z,89.81
2023-05-05T03:36:08.302Z,89.61
2023-05-05T03:37:10.033Z,89.37
2023-05-05T03:38:11.862Z,89.21
2023-05-05T03:39:13.672Z,89.11
2023-05-05T03:40:15.494Z,89.03
2023-05-05T03:41:17.297Z,88.78
2023-05-05T03:42:19.628Z,88.55
2023-05-05T03:43:21.345Z,88.43
2023-05-05T03:44:23.056Z,88.62
2023-05-05T03:45:25.210Z,88.43
2023-05-05T03:46:26.968Z,88.59
2023-05-05T03:47:28.807Z,88.70
2023-05-05T03:48:30.582Z,88.39
2023-05-05T03:49:32.414Z,88.32
2023-05-05T03:50:34.310Z,88.37
2023-05-05T03:51:37.031Z,88.07
2023-05-05T03:52:39.016Z,88.22
2023-05-05T03:53:40.735Z,88.10
2023-05-05T03:54:42.455Z,88.02
2023-05-05T03:55:44.205Z,87.94
2023-05-05T03:56:45.980Z,87.87
2023-05-05T03:57:47.624Z,87.85
2023-05-05T03:58:49.323Z,88.10
2023-05-05T03:59:51.064Z,88.03
2023-05-05T04:00:53.025Z,88.20
2023-05-05T04:01:54.991Z,88.17
2023-05-05T04:02:57.129Z,88.35
2023-05-05T04:03:59.047Z,88.39
2023-05-05T04:05:00.942Z,88.34
2023-05-05T04:06:02.627Z,88.49
2023-05-05T04:07:04.420Z,88.34
2023-05-05T04:08:06.162Z,88.27
2023-05-05T04:09:07.854Z,88.45
2023-05-05T04:10:10.046Z,88.40
2023-05-05T04:11:11.962Z,88.38
2023-05-05T04:12:14.184Z,88.30
2023-05-05T04:13:16.060Z,87.97
2023-05-05T04:14:18.046Z,88.07
2023-05-05T04:15:19.984Z,88.11
2023-05-05T04:16:21.806Z,88.17
2023-05-05T04:17:23.572Z,87.74
2023-05-05T04:18:25.837Z,87.75
2023-05-05T04:19:27.538Z,87.64
2023-05-05T04:20:29.233Z,87.13
2023-05-05T04:21:30.898Z,87.35
2023-05-05T04:22:32.853Z,87.12
2023-05-05T04:23:34.710Z,86.84
2023-05-05T04:24:36.457Z,86.80
2023-05-05T04:25:38.256Z,87.04
2023-05-05T04:26:40.011Z,86.89
2023-05-05T04:27:41.738Z,86.19
2023-05-05T04:28:43.447Z,85.79
2023-05-05T04:29:45.172Z,86.17
2023-05-05T04:30:47.340Z,85.62
2023-05-05T04:31:49.112Z,85.33
2023-05-05T04:32:51.046Z,85.10
2023-05-05T04:33:53.058Z,85.10
2023-05-05T04:34:54.993Z,85.59
2023-05-05T04:35:56.842Z,85.60
2023-05-05T04:36:58.758Z,85.94
2023-05-05T04:38:00.551Z,85.57
2023-05-05T04:39:02.447Z,85.39
2023-05-05T04:40:04.742Z,85.17
2023-05-05T04:41:06.597Z,85.25
2023-05-05T04:42:08.427Z,85.60
2023-05-05T04:43:10.303Z,85.77
2023-05-05T04:44:12.087Z,85.98
2023-05-05T04:45:13.953Z,86.59
2023-05-05T04:46:15.786Z,86.75
2023-05-05T04:47:17.639Z,86.22
2023-05-05T04:48:19.392Z,85.93
2023-05-05T04:49:21.118Z,85.84
2023-05-05T04:50:22.854Z,85.64
2023-05-05T04:51:24.552Z,85.80
2023-05-05T04:52:26.352Z,85.20
2023-05-05T04:53:28.089Z,85.09
2023-05-05T04:54:29.787Z,85.43
2023-05-05T04:55:31.654Z,85.71
2023-05-05T04:56:33.410Z,85.66
2023-05-05T04:57:35.259Z,85.92
2023-05-05T04:58:37.153Z,86.26
2023-05-05T04:59:38.912Z,86.16
2023-05-05T05:00:40.680Z,85.96
2023-05-05T05:01:42.585Z,85.63
2023-05-05T05:02:44.450Z,84.95
2023-05-05T05:03:46.345Z,85.15
2023-05-05T05:04:48.070Z,85.00
2023-05-05T05:05:50.146Z,84.53
2023-05-05T05:06:52.019Z,84.35
2023-05-05T05:07:53.777Z,84.44
2023-05-05T05:08:55.514Z,84.57
2023-05-05T05:09:57.354Z,84.21
2023-05-05T05:10:59.996Z,84.36
2023-05-05T05:12:02.104Z,84.36
2023-05-05T05:13:03.887Z,84.96
2023-05-05T05:14:05.713Z,84.83
2023-05-05T05:15:08.272Z,85.05
2023-05-05T05:16:10.188Z,85.16
2023-05-05T05:17:11.984Z,85.92
2023-05-05T05:18:13.816Z,86.08
2023-05-05T05:19:15.543Z,86.05
2023-05-05T05:20:17.256Z,86.30
2023-05-05T05:21:19.084Z,86.32
2023-05-05T05:22:21.058Z,86.24
2023-05-05T05:23:22.835Z,86.32
2023-05-05T05:24:24.509Z,86.88
2023-05-05T05:25:26.265Z,86.50
2023-05-05T05:26:28.009Z,86.45
2023-05-05T05:27:29.760Z,86.18
2023-05-05T05:28:31.435Z,86.27
2023-05-05T05:29:33.395Z,86.39
2023-05-05T05:30:35.355Z,86.27
2023-05-05T05:31:37.210Z,85.61
2023-05-05T05:32:39.142Z,86.01
2023-05-05T05:33:40.961Z,85.67
2023-05-05T05:34:42.773Z,85.57
2023-05-05T05:35:44.573Z,85.91
2023-05-05T05:36:46.211Z,86.17
2023-05-05T05:37:48.111Z,86.21
2023-05-05T05:38:49.829Z,86.05
2023-05-05T05:39:52.124Z,86.36
2023-05-05T05:40:53.936Z,86.56
2023-05-05T05:41:55.714Z,85.58
2023-05-05T05:42:57.562Z,85.24
2023-05-05T05:43:59.465Z,85.07
2023-05-05T05:45:01.292Z,84.60
2023-05-05T05:46:03.035Z,84.48
2023-05-05T05:47:04.864Z,84.28
2023-05-05T05:48:06.824Z,83.90
2023-05-05T05:49:08.653Z,83.91
2023-05-05T05:50:10.984Z,83.89
2023-05-05T05:51:12.943Z,83.77
2023-05-05T05:52:14.753Z,83.74
2023-05-05T05:53:16.517Z,83.38
2023-05-05T05:54:18.271Z,82.81
2023-05-05T05:55:20.205Z,82.69
2023-05-05T05:56:21.949Z,82.25
2023-05-05T05:57:23.709Z,82.28
2023-05-05T05:58:25.492Z,81.45
2023-05-05T05:59:27.169Z,81.37
2023-05-05T06:00:28.860Z,81.89
2023-05-05T06:01:30.560Z,81.80
2023-05-05T06:02:32.353Z,81.64
2023-05-05T06:03:34.442Z,81.76
2023-05-05T06:04:36.734Z,81.71
2023-05-05T06:05:38.741Z,81.53
2023-05-05T06:06:40.489Z,79.42
2023-05-05T06:07:42.325Z,79.90
2023-05-05T06:08:44.312Z,80.15
2023-05-05T06:09:46.158Z,80.28
2023-05-05T06:10:47.840Z,80.00
2023-05-05T06:11:49.524Z,79.47
2023-05-05T06:12:51.304Z,79.72
2023-05-05T06:13:53.129Z,79.66
2023-05-05T06:14:54.788Z,78.59
2023-05-05T06:15:56.555Z,78.16
2023-05-05T06:16:58.480Z,78.46
2023-05-05T06:18:00.232Z,77.57
2023-05-05T06:19:01.980Z,76.25
2023-05-05T06:20:04.126Z,76.01
2023-05-05T06:21:05.926Z,75.96
2023-05-05T06:22:07.826Z,76.07
2023-05-05T06:23:09.549Z,76.15
2023-05-05T06:24:11.293Z,76.02
2023-05-05T06:25:13.056Z,75.73
2023-05-05T06:26:14.856Z,75.19
2023-05-05T06:27:16.581Z,73.84
2023-05-05T06:28:18.472Z,73.56
2023-05-05T06:29:20.312Z,73.80
2023-05-05T06:30:22.660Z,74.23
2023-05-05T06:31:24.429Z,73.40
2023-05-05T06:32:26.211Z,74.40
2023-05-05T06:33:27.953Z,74.28
2023-05-05T06:34:29.685Z,73.75
2023-05-05T06:35:31.427Z,73.34
2023-05-05T06:36:33.223Z,72.56
2023-05-05T06:37:35.016Z,72.38
2023-05-05T06:38:36.886Z,71.70
2023-05-05T06:39:38.648Z,72.25
2023-05-05T06:40:40.391Z,72.92
2023-05-05T06:41:42.138Z,73.72
2023-05-05T06:42:43.981Z,73.78
2023-05-05T06:43:45.681Z,73.84
2023-05-05T06:44:47.392Z,72.58
2023-05-05T06:45:49.172Z,71.27
2023-05-05T06:46:50.930Z,70.38
2023-05-05T06:47:52.811Z,70.16
2023-05-05T06:48:54.826Z,69.41
2023-05-05T06:49:56.729Z,69.97
2023-05-05T06:50:58.632Z,68.96
2023-05-05T06:52:00.499Z,68.91
2023-05-05T06:53:02.310Z,69.50
2023-05-05T06:54:04.087Z,67.90
2023-05-05T06:55:06.325Z,68.14
2023-05-05T06:56:08.106Z,67.78
2023-05-05T06:57:09.848Z,68.82
2023-05-05T06:58:11.689Z,68.67
2023-05-05T06:59:13.395Z,69.53
2023-05-05T07:00:15.674Z,68.68
2023-05-05T07:01:17.484Z,68.43
2023-05-05T07:02:19.312Z,68.59
2023-05-05T07:03:21.301Z,68.82
2023-05-05T07:04:23.391Z,68.51
2023-05-05T07:05:25.101Z,67.47
2023-05-05T07:06:26.774Z,65.86
2023-05-05T07:07:28.450Z,65.43
2023-05-05T07:08:30.121Z,64.36
2023-05-05T07:09:31.723Z,64.41
2023-05-05T07:10:33.497Z,64.96
2023-05-05T07:11:35.113Z,62.81
2023-05-05T07:12:36.970Z,62.43
2023-05-05T07:13:38.821Z,62.46
2023-05-05T07:14:40.717Z,62.67
2023-05-05T07:15:42.654Z,62.81
2023-05-05T07:16:44.555Z,61.37
2023-05-05T07:17:46.301Z,61.44
2023-05-05T07:18:48.034Z,62.09
2023-05-05T07:19:49.697Z,62.91
2023-05-05T07:20:51.431Z,61.40
2023-05-05T07:21:53.510Z,61.37
2023-05-05T07:22:55.451Z,61.05
2023-05-05T07:23:57.141Z,59.21
2023-05-05T07:24:59.136Z,59.33
2023-05-05T07:26:01.023Z,59.11
2023-05-05T07:27:02.973Z,59.61
2023-05-05T07:28:05.093Z,59.63
2023-05-05T07:29:06.743Z,58.24
2023-05-05T07:30:13.118Z,58.69
2023-05-05T07:31:17.314Z,58.77
2023-05-05T07:32:19.404Z,58.00
2023-05-05T07:33:21.275Z,58.28
2023-05-05T07:34:23.252Z,59.44
2023-05-05T07:35:25.059Z,60.44
2023-05-05T07:36:27.100Z,59.74
2023-05-05T07:37:28.759Z,58.00
2023-05-05T07:38:30.452Z,57.00
2023-05-05T07:39:32.882Z,57.18
2023-05-05T07:40:34.604Z,56.71
2023-05-05T07:41:36.398Z,56.74
2023-05-05T07:42:38.436Z,57.17
2023-05-05T07:43:41.718Z,55.99
2023-05-05T07:44:44.529Z,56.45
2023-05-05T07:45:46.476Z,55.28
2023-05-05T07:46:48.190Z,55.64
2023-05-05T07:47:50.089Z,55.87
2023-05-05T07:48:51.821Z,55.28
2023-05-05T07:49:54.494Z,57.06
2023-05-05T07:50:56.287Z,57.25
2023-05-05T07:51:58.218Z,55.54
2023-05-05T07:53:10.903Z,55.55
2023-05-05T07:54:16.845Z,57.22
2023-05-05T07:55:18.766Z,55.56
2023-05-05T07:56:21.788Z,57.48
2023-05-05T07:57:23.820Z,58.03
2023-05-05T07:58:25.553Z,57.92
2023-05-05T07:59:27.349Z,57.36
2023-05-05T08:00:29.158Z,57.52
2023-05-05T08:01:30.956Z,57.44
2023-05-05T08:02:32.819Z,57.74
2023-05-05T08:03:34.780Z,58.26
2023-05-05T08:04:36.803Z,58.39
2023-05-05T08:05:38.754Z,58.80
2023-05-05T08:06:40.523Z,60.78
2023-05-05T08:07:42.512Z,60.09
2023-05-05T08:08:44.355Z,59.50
2023-05-05T08:09:46.173Z,59.89
2023-05-05T08:10:48.021Z,60.06
2023-05-05T08:11:49.913Z,60.20
2023-05-05T08:12:51.741Z,60.28
2023-05-05T08:13:53.595Z,60.50
2023-05-05T08:14:55.306Z,62.12
2023-05-05T08:15:57.136Z,62.63
2023-05-05T08:16:59.012Z,64.12
2023-05-05T08:18:00.868Z,62.93
2023-05-05T08:19:04.117Z,63.12
2023-05-05T08:20:08.716Z,63.34
2023-05-05T08:21:11.430Z,64.10
2023-05-05T08:22:13.191Z,63.39
2023-05-05T08:23:14.919Z,63.44
2023-05-05T08:24:16.906Z,63.57
2023-05-05T08:25:18.897Z,63.05
2023-05-05T08:26:20.659Z,62.67
2023-05-05T08:27:22.705Z,62.90
2023-05-05T08:28:24.374Z,62.45
2023-05-05T08:29:26.192Z,61.84
2023-05-05T08:30:28.346Z,61.12
2023-05-05T08:31:33.783Z,60.38
2023-05-05T08:32:35.630Z,60.81
2023-05-05T08:33:37.454Z,59.26
2023-05-05T08:34:39.107Z,59.45
2023-05-05T08:35:41.235Z,58.46
2023-05-05T08:36:43.154Z,58.95
2023-05-05T08:37:44.951Z,59.74
2023-05-05T08:38:46.929Z,59.30
2023-05-05T08:39:48.611Z,58.25
2023-05-05T08:40:51.472Z,58.69
2023-05-05T08:41:53.318Z,57.85
2023-05-05T08:42:55.153Z,57.59
2023-05-05T08:43:56.895Z,57.14
2023-05-05T08:44:59.073Z,55.71
2023-05-05T08:46:01.097Z,55.21
2023-05-05T08:47:03.061Z,54.78
2023-05-05T08:48:05.725Z,53.99
2023-05-05T08:49:14.396Z,55.27
2023-05-05T08:50:19.224Z,53.60
2023-05-05T08:51:22.126Z,55.17
2023-05-05T08:52:24.474Z,54.77
2023-05-05T08:53:32.266Z,54.72
2023-05-05T08:54:38.129Z,54.60
2023-05-05T08:55:52.342Z,54.71
2023-05-05T08:56:57.073Z,54.07
2023-05-05T08:57:59.752Z,53.61
2023-05-05T08:59:03.190Z,53.65
2023-05-05T09:00:06.197Z,55.88
2023-05-05T09:01:08.317Z,55.01
2023-05-05T09:02:11.637Z,53.49
2023-05-05T09:03:13.629Z,55.06
2023-05-05T09:04:16.363Z,54.87
2023-05-05T09:05:18.378Z,52.61
2023-05-05T09:06:23.776Z,52.76
2023-05-05T09:07:25.878Z,49.81
2023-05-05T09:08:28.359Z,49.69
2023-05-05T09:09:30.813Z,46.69
2023-05-05T09:10:33.277Z,48.34
2023-05-05T09:11:35.735Z,49.63
2023-05-05T09:12:38.508Z,50.14
2023-05-05T09:13:40.508Z,50.03
2023-05-05T09:14:42.262Z,47.64
2023-05-05T09:15:43.950Z,49.53
2023-05-05T09:16:45.828Z,48.38
2023-05-05T09:17:47.741Z,46.89
2023-05-05T09:18:49.666Z,46.65
2023-05-05T09:20:11.830Z,46.13
2023-05-05T09:21:24.235Z,44.17
2023-05-05T09:22:40.400Z,45.37
2023-05-05T09:24:08.558Z,45.01
2023-05-05T09:25:12.717Z,46.26
2023-05-05T09:26:14.597Z,45.28
2023-05-05T09:27:22.725Z,45.97
2023-05-05T09:28:24.645Z,44.63
2023-05-05T09:29:26.518Z,44.84
2023-05-05T09:30:28.472Z,45.36
2023-05-05T09:31:31.911Z,46.28
2023-05-05T09:32:50.402Z,45.92
2023-05-05T09:33:52.292Z,44.63
2023-05-05T09:35:01.603Z,45.26
2023-05-05T09:36:03.687Z,43.71
2023-05-05T09:37:05.611Z,43.68
2023-05-05T09:38:13.404Z,46.14
2023-05-05T09:39:17.620Z,46.95
2023-05-05T09:40:20.673Z,47.36
2023-05-05T09:41:39.474Z,46.07
2023-05-05T09:42:41.783Z,45.85
2023-05-05T09:43:51.730Z,45.19
2023-05-05T09:44:53.814Z,46.56
2023-05-05T09:46:08.823Z,47.00
2023-05-05T09:47:25.937Z,48.03
2023-05-05T09:48:32.175Z,48.59
2023-05-05T09:49:33.991Z,48.49
2023-05-05T09:50:43.787Z,47.91
2023-05-05T09:51:47.018Z,48.14
2023-05-05T09:52:59.122Z,46.34
2023-05-05T09:54:00.989Z,44.78
2023-05-05T09:55:03.015Z,44.49
2023-05-05T09:56:05.603Z,44.82
2023-05-05T09:57:07.908Z,43.88
2023-05-05T09:58:20.264Z,44.97
2023-05-05T09:59:23.228Z,44.61
2023-05-05T10:00:38.600Z,42.58
2023-05-05T10:01:40.538Z,43.82
2023-05-05T10:02:42.473Z,44.54
2023-05-05T10:03:52.799Z,43.57
2023-05-05T10:05:14.501Z,42.76
2023-05-05T10:06:16.349Z,41.87
2023-05-05T10:07:24.509Z,42.18
2023-05-05T10:08:28.945Z,43.63
2023-05-05T10:09:30.987Z,43.92
2023-05-05T10:10:32.729Z,44.65
2023-05-05T10:11:34.941Z,44.81
2023-05-05T10:12:37.248Z,44.21
2023-05-05T10:13:41.291Z,42.56
2023-05-05T10:14:43.704Z,44.24
2023-05-05T10:15:47.410Z,46.09
2023-05-05T10:16:51.924Z,45.93
2023-05-05T10:18:06.805Z,43.73
2023-05-05T10:19:11.627Z,43.19
2023-05-05T10:20:14.662Z,43.66
2023-05-05T10:21:20.184Z,45.78
2023-05-05T10:22:23.451Z,46.57
2023-05-05T10:23:47.249Z,47.16
2023-05-05T10:25:01.879Z,45.72
2023-05-05T10:26:07.350Z,46.82
2023-05-05T10:27:29.454Z,46.93
2023-05-05T10:28:44.224Z,46.13
2023-05-05T10:29:45.912Z,44.64
2023-05-05T10:30:52.191Z,45.28
2023-05-05T10:31:58.824Z,43.93
2023-05-05T10:33:22.146Z,43.05
2023-05-05T10:34:38.905Z,42.48
2023-05-05T10:35:44.234Z,42.49
2023-05-05T10:36:46.354Z,42.94
2023-05-05T10:37:48.376Z,42.49
2023-05-05T10:38:54.156Z,41.43
2023-05-05T10:39:56.509Z,40.17
2023-05-05T10:40:59.928Z,41.89
2023-05-05T10:42:02.140Z,40.96
2023-05-05T10:43:04.764Z,41.68
2023-05-05T10:44:07.189Z,41.88
2023-05-05T10:45:10.028Z,40.03
2023-05-05T10:46:11.980Z,40.00
2023-05-05T10:47:14.187Z,40.42
2023-05-05T10:48:26.840Z,40.27
2023-05-05T10:49:59.133Z,39.98
2023-05-05T10:51:27.473Z,41.40
2023-05-05T10:52:43.181Z,40.73
2023-05-05T10:53:58.607Z,39.07
2023-05-05T10:55:00.414Z,39.00
2023-05-05T10:56:22.290Z,39.19
2023-05-05T10:57:28.341Z,39.00
2023-05-05T10:58:50.946Z,39.51
2023-05-05T10:59:53.398Z,37.90
2023-05-05T11:00:55.667Z,37.71
2023-05-05T11:01:57.895Z,38.43
2023-05-05T11:03:17.973Z,37.68
2023-05-05T11:04:21.619Z,36.24
2023-05-05T11:05:23.639Z,38.29
2023-05-05T11:06:25.583Z,38.86
2023-05-05T11:07:27.502Z,40.37
2023-05-05T11:08:30.784Z,40.18
2023-05-05T11:09:32.582Z,39.38
2023-05-05T11:10:46.764Z,40.11
2023-05-05T11:12:09.327Z,40.28
2023-05-05T11:13:11.066Z,40.97
2023-05-05T11:14:21.941Z,41.28
2023-05-05T11:15:26.925Z,42.47
2023-05-05T11:16:45.923Z,43.26
2023-05-05T11:17:48.348Z,43.22
2023-05-05T11:18:50.315Z,42.35
2023-05-05T11:19:52.244Z,41.34
2023-05-05T11:20:59.830Z,40.36
2023-05-05T11:22:02.113Z,40.19
2023-05-05T11:23:03.923Z,40.32
2023-05-05T11:24:28.438Z,39.15
2023-05-05T11:25:36.269Z,39.04
2023-05-05T11:26:51.782Z,38.84
2023-05-05T11:28:11.373Z,39.07
2023-05-05T11:29:13.167Z,38.68
2023-05-05T11:30:15.080Z,40.11
2023-05-05T11:31:17.922Z,38.86
2023-05-05T11:32:19.696Z,37.90
2023-05-05T11:33:34.429Z,38.79
2023-05-05T11:34:36.191Z,38.79
2023-05-05T11:35:56.727Z,39.20
2023-05-05T11:37:02.099Z,38.28
2023-05-05T11:38:07.602Z,38.16
2023-05-05T11:39:23.673Z,37.22
2023-05-05T11:40:33.252Z,38.89
2023-05-05T11:42:15.112Z,38.97
2023-05-05T11:43:19.362Z,38.79
2023-05-05T11:44:30.869Z,38.71
2023-05-05T11:45:32.670Z,37.66
2023-05-05T11:46:34.514Z,36.49
2023-05-05T11:47:36.399Z,37.74
2023-05-05T11:48:44.622Z,36.78
2023-05-05T11:49:46.523Z,36.07
2023-05-05T11:50:49.121Z,35.93
2023-05-05T11:51:58.280Z,36.31
2023-05-05T11:53:00.285Z,36.28
2023-05-05T11:54:02.048Z,37.57
2023-05-05T11:55:04.184Z,35.78
2023-05-05T11:56:07.615Z,37.06
2023-05-05T11:57:09.504Z,36.28
2023-05-05T11:58:20.535Z,36.33
2023-05-05T11:59:22.424Z,35.95
2023-05-05T12:00:33.527Z,36.56
2023-05-05T12:01:39.428Z,36.98
2023-05-05T12:02:41.342Z,37.10
2023-05-05T12:03:43.463Z,36.43
2023-05-05T12:04:45.956Z,35.77
2023-05-05T12:05:47.799Z,36.70
2023-05-05T12:06:49.934Z,36.95
2023-05-05T12:07:57.026Z,36.36
2023-05-05T12:08:58.793Z,36.04
2023-05-05T12:10:00.892Z,35.09
2023-05-05T12:11:04.154Z,35.78
2023-05-05T12:12:06.412Z,35.19
2023-05-05T12:13:18.799Z,36.08
2023-05-05T12:14:22.167Z,36.12
2023-05-05T12:15:31.327Z,36.55
2023-05-05T12:16:33.161Z,36.35
2023-05-05T12:17:40.304Z,36.28
2023-05-05T12:18:42.768Z,37.00
2023-05-05T12:19:52.821Z,37.35
2023-05-05T12:20:54.663Z,37.45
2023-05-05T12:21:57.113Z,38.46
2023-05-05T12:23:04.949Z,36.33
2023-05-05T12:24:07.211Z,37.93
2023-05-05T12:25:09.583Z,37.29
2023-05-05T12:26:29.005Z,37.67
2023-05-05T12:27:30.999Z,37.54
2023-05-05T12:28:46.031Z,37.22
2023-05-05T12:29:48.033Z,39.06
2023-05-05T12:30:59.768Z,39.08
2023-05-05T12:32:01.580Z,37.92
2023-05-05T12:33:08.228Z,37.58
2023-05-05T12:34:12.022Z,37.43
2023-05-05T12:35:14.037Z,36.98
2023-05-05T12:36:16.268Z,37.48
2023-05-05T12:37:18.163Z,36.32
2023-05-05T12:38:19.889Z,36.25
2023-05-05T12:39:21.551Z,34.24
2023-05-05T12:40:44.924Z,36.32
2023-05-05T12:41:47.126Z,36.35
2023-05-05T12:42:48.923Z,36.45
2023-05-05T12:43:58.267Z,36.65
2023-05-05T12:45:00.002Z,37.16
2023-05-05T12:46:06.010Z,36.39
2023-05-05T12:47:08.206Z,35.60
2023-05-05T12:48:22.653Z,34.70
2023-05-05T12:49:24.372Z,35.97
2023-05-05T12:50:33.776Z,37.02
2023-05-05T12:51:36.580Z,36.52
2023-05-05T12:52:43.261Z,36.55
2023-05-05T12:53:46.284Z,37.57
2023-05-05T12:54:57.861Z,37.48
2023-05-05T12:55:59.625Z,37.15
2023-05-05T12:57:11.015Z,36.75
2023-05-05T12:58:12.911Z,35.95
2023-05-05T12:59:23.560Z,36.43
2023-05-05T13:00:26.051Z,35.54
2023-05-05T13:01:29.233Z,36.04
2023-05-05T13:02:34.326Z,36.26
2023-05-05T13:03:36.260Z,36.66
2023-05-05T13:04:52.022Z,36.87
2023-05-05T13:05:53.805Z,36.07
2023-05-05T13:07:17.351Z,36.55
2023-05-05T13:08:19.187Z,36.55
2023-05-05T13:09:28.932Z,36.55
2023-05-05T13:10:30.721Z,36.42
2023-05-05T13:11:39.226Z,37.81
2023-05-05T13:12:40.855Z,37.08
2023-05-05T13:13:42.580Z,37.08
2023-05-05T13:14:44.848Z,39.08
2023-05-05T13:15:46.669Z,39.27
2023-05-05T13:16:49.108Z,40.82
2023-05-05T13:17:58.356Z,40.32
2023-05-05T13:19:00.154Z,39.38
2023-05-05T13:20:01.884Z,39.46
2023-05-05T13:21:03.604Z,39.62
2023-05-05T13:22:05.291Z,39.92
2023-05-05T13:23:07.054Z,40.07
2023-05-05T13:24:23.624Z,41.45
2023-05-05T13:25:30.654Z,42.57
2023-05-05T13:26:32.372Z,42.54
2023-05-05T13:27:34.324Z,43.39
2023-05-05T13:28:36.122Z,44.17
2023-05-05T13:29:37.875Z,42.02
2023-05-05T13:30:39.739Z,41.23
2023-05-05T13:31:41.619Z,40.48
2023-05-05T13:32:43.527Z,40.60
2023-05-05T13:33:45.236Z,39.26
2023-05-05T13:34:46.952Z,39.56
2023-05-05T13:35:48.708Z,38.01
2023-05-05T13:36:50.702Z,39.62
2023-05-05T13:37:52.724Z,37.98
2023-05-05T13:38:54.773Z,38.44
2023-05-05T13:39:56.578Z,37.77
2023-05-05T13:40:58.417Z,37.24
2023-05-05T13:42:00.372Z,37.65
2023-05-05T13:43:02.205Z,38.69
2023-05-05T13:44:04.089Z,38.45
2023-05-05T13:45:06.239Z,39.17
2023-05-05T13:46:19.274Z,38.86
2023-05-05T13:47:22.118Z,38.13
2023-05-05T13:48:24.182Z,37.69
2023-05-05T13:49:25.915Z,37.58
2023-05-05T13:50:27.706Z,38.04